Time;durP1;ratioP1;P1;durP2;ratioP2;P2;SDS_P1;SDS_P2;PMS_P1;PMS_P2;Temp;Humidity;BMP_temperature;BMP_pressure;BME280_temperature;BME280_humidity;BME280_pressure;Samples;Min_cycle;Max_cycle;Signal;HPM_P1;HPM_P2
2021/10/16 00:00:01;;;;;;;14.90;7.13;;;;;;;7.88;89.83;96567.25;4998549;28;20217;-71
2021/10/16 00:02:28;;;;;;;15.13;7.83;;;;;;;8.19;89.93;96569.28;4998218;28;20222;-71
2021/10/16 00:04:55;;;;;;;9.97;6.10;;;;;;;7.96;88.03;96569.94;4997927;28;20230;-71
2021/10/16 00:07:21;;;;;;;12.40;7.30;;;;;;;7.86;87.51;96571.81;4998276;28;20514;-71
2021/10/16 00:09:48;;;;;;;13.83;7.20;;;;;;;7.93;89.39;96571.06;4998504;28;20210;-70
2021/10/16 00:12:14;;;;;;;16.43;7.77;;;;;;;8.00;89.74;96579.13;4998495;28;20203;-70
2021/10/16 00:14:41;;;;;;;19.60;8.53;;;;;;;7.69;91.64;96580.53;4998939;28;20279;-71
2021/10/16 00:17:08;;;;;;;18.00;8.03;;;;;;;7.95;92.34;96584.81;4995313;28;20404;-71
2021/10/16 00:19:37;;;;;;;18.07;8.03;;;;;;;8.18;92.08;96582.56;4997654;28;20581;-71
2021/10/16 00:22:04;;;;;;;14.40;8.20;;;;;;;8.02;90.92;96582.44;4998609;28;20262;-72
2021/10/16 00:24:31;;;;;;;19.00;7.97;;;;;;;7.99;90.50;96578.31;4998752;28;20222;-71
2021/10/16 00:26:57;;;;;;;17.83;8.27;;;;;;;8.16;89.92;96582.72;4997560;28;20238;-71
2021/10/16 00:29:24;;;;;;;20.10;9.47;;;;;;;8.34;90.42;96580.03;4998509;28;20868;-71
2021/10/16 00:31:50;;;;;;;19.60;9.00;;;;;;;8.46;90.11;96584.06;4998425;28;20876;-70
2021/10/16 00:34:17;;;;;;;14.53;7.90;;;;;;;8.31;90.76;96585.59;4998004;28;20206;-71
2021/10/16 00:36:45;;;;;;;15.20;7.43;;;;;;;8.48;90.40;96587.34;4997538;28;20913;-70
2021/10/16 00:39:11;;;;;;;20.10;8.17;;;;;;;8.43;88.97;96581.75;4998801;28;20206;-72
2021/10/16 00:41:38;;;;;;;15.47;7.43;;;;;;;8.52;88.37;96582.44;4997901;28;20226;-71
2021/10/16 00:44:11;;;;;;;13.10;6.90;;;;;;;8.59;89.53;96583.50;4997314;28;20206;-71
2021/10/16 00:46:38;;;;;;;15.77;7.80;;;;;;;8.25;90.76;96584.44;4997696;28;20202;-72
2021/10/16 00:49:04;;;;;;;19.57;9.60;;;;;;;8.37;90.34;96587.63;4998224;28;20210;-71
2021/10/16 00:51:31;;;;;;;19.60;8.60;;;;;;;8.34;91.46;96587.91;4996969;28;20616;-71
2021/10/16 00:54:00;;;;;;;19.13;8.77;;;;;;;8.61;91.12;96586.75;4997516;28;20206;-71
2021/10/16 00:56:27;;;;;;;20.53;9.37;;;;;;;8.25;93.01;96573.09;4996637;28;20225;-71
2021/10/16 00:58:54;;;;;;;22.23;9.30;;;;;;;8.31;93.10;96583.81;4997388;28;20211;-71
2021/10/16 01:01:20;;;;;;;21.80;9.13;;;;;;;8.30;92.78;96578.69;4998004;28;20320;-72
2021/10/16 01:03:47;;;;;;;21.63;8.70;;;;;;;8.34;93.24;96588.75;4997484;28;20695;-71
2021/10/16 01:06:14;;;;;;;17.83;9.20;;;;;;;8.36;93.55;96581.53;4996145;28;20226;-71
2021/10/16 01:08:40;;;;;;;18.33;9.63;;;;;;;8.50;93.04;96583.59;4997780;28;20435;-72
2021/10/16 01:11:08;;;;;;;20.83;9.73;;;;;;;8.78;93.50;96582.41;4997422;28;20230;-70
2021/10/16 01:13:35;;;;;;;20.30;9.50;;;;;;;8.59;93.31;96588.75;4996800;28;20423;-71
2021/10/16 01:16:02;;;;;;;18.73;9.30;;;;;;;8.61;92.96;96578.88;4993454;28;20256;-71
2021/10/16 01:18:29;;;;;;;24.13;9.13;;;;;;;8.66;93.91;96576.63;4996853;28;20656;-71
2021/10/16 01:21:03;;;;;;;22.90;10.57;;;;;;;9.08;92.40;96580.06;4996729;28;20561;-71
2021/10/16 01:23:30;;;;;;;18.57;9.17;;;;;;;8.76;92.53;96573.88;4996635;28;20226;-71
2021/10/16 01:25:58;;;;;;;20.00;10.40;;;;;;;8.93;92.14;96573.78;4996518;28;20722;-72
2021/10/16 01:28:24;;;;;;;19.63;9.60;;;;;;;8.82;92.23;96574.06;4997018;28;20214;-71
2021/10/16 01:30:52;;;;;;;21.60;9.33;;;;;;;8.96;92.38;96570.00;4996831;28;20618;-72
2021/10/16 01:33:19;;;;;;;15.57;8.70;;;;;;;8.84;92.45;96579.97;4996301;28;20206;-72
2021/10/16 01:35:58;;;;;;;16.70;8.47;;;;;;;9.32;91.45;96569.63;4996374;28;20226;-71
2021/10/16 01:38:26;;;;;;;18.13;9.57;;;;;;;9.13;91.88;96567.28;4996424;28;20205;-71
2021/10/16 01:40:52;;;;;;;16.60;8.70;;;;;;;8.92;92.72;96572.13;4997393;28;20203;-71
2021/10/16 01:43:19;;;;;;;19.70;9.10;;;;;;;8.77;93.61;96573.72;4996444;28;20226;-71
2021/10/16 01:45:46;;;;;;;21.37;9.60;;;;;;;8.85;93.07;96563.22;4996078;28;20588;-71
2021/10/16 01:48:12;;;;;;;20.33;9.13;;;;;;;8.83;93.55;96570.44;4997401;28;20682;-71
2021/10/16 01:50:40;;;;;;;17.63;8.37;;;;;;;8.93;93.70;96567.69;4997451;28;20205;-70
2021/10/16 01:53:08;;;;;;;18.57;9.60;;;;;;;9.03;93.15;96561.31;4996434;28;20203;-71
2021/10/16 01:55:36;;;;;;;17.60;8.53;;;;;;;9.06;93.60;96561.00;4995459;28;20331;-71
2021/10/16 01:58:05;;;;;;;16.73;8.93;;;;;;;9.14;92.87;96555.78;4997206;28;20215;-71
2021/10/16 02:00:31;;;;;;;16.33;8.73;;;;;;;9.00;92.29;96556.41;4996611;28;20234;-72
2021/10/16 02:02:58;;;;;;;20.10;10.47;;;;;;;9.03;92.55;96561.31;4995792;28;20714;-72
2021/10/16 02:05:24;;;;;;;17.73;9.37;;;;;;;9.11;91.97;96563.97;4996274;28;20233;-71
2021/10/16 02:07:51;;;;;;;15.60;8.80;;;;;;;8.96;92.57;96564.75;4996694;28;20288;-72
2021/10/16 02:10:18;;;;;;;18.57;8.90;;;;;;;8.98;92.72;96558.34;4996054;28;20213;-72
2021/10/16 02:12:46;;;;;;;16.77;9.50;;;;;;;9.19;93.14;96556.13;4992585;28;20894;-71
2021/10/16 02:15:13;;;;;;;18.90;9.20;;;;;;;8.95;93.52;96566.56;4993926;28;20730;-71
2021/10/16 02:17:39;;;;;;;20.03;10.23;;;;;;;8.98;93.54;96566.22;4995398;28;20203;-71
2021/10/16 02:20:07;;;;;;;20.70;9.93;;;;;;;9.22;93.17;96563.69;4996965;28;20206;-71
2021/10/16 02:22:33;;;;;;;17.90;9.40;;;;;;;8.99;93.50;96569.72;4996786;28;20226;-71
2021/10/16 02:25:00;;;;;;;17.27;9.73;;;;;;;9.01;93.25;96567.72;5002728;28;20226;-71
2021/10/16 02:27:26;;;;;;;19.67;10.17;;;;;;;9.14;92.66;96563.69;5002225;28;20202;-71
2021/10/16 02:29:54;;;;;;;20.77;10.77;;;;;;;9.25;92.97;96566.81;5003005;28;20202;-71
2021/10/16 02:32:21;;;;;;;22.77;10.20;;;;;;;9.19;91.88;96556.13;5002659;28;20202;-72
2021/10/16 02:34:47;;;;;;;19.93;9.73;;;;;;;9.10;92.78;96557.09;5002109;28;20706;-72
2021/10/16 02:37:14;;;;;;;22.40;10.47;;;;;;;9.22;92.19;96550.53;5002773;28;20257;-71
2021/10/16 02:39:40;;;;;;;20.63;9.90;;;;;;;9.17;92.07;96552.81;5002915;28;20206;-71
2021/10/16 02:42:07;;;;;;;16.63;9.00;;;;;;;9.04;92.47;96552.47;5002867;28;20261;-71
2021/10/16 02:44:34;;;;;;;16.57;9.03;;;;;;;8.95;92.70;96558.69;5002601;28;20232;-72
2021/10/16 02:47:02;;;;;;;21.53;10.53;;;;;;;9.23;92.84;96562.72;5002375;28;20241;-71
2021/10/16 02:49:29;;;;;;;18.97;10.03;;;;;;;9.06;92.58;96555.75;5002095;28;20281;-71
2021/10/16 02:51:55;;;;;;;16.70;9.10;;;;;;;9.01;92.16;96568.53;5003268;28;20554;-71
2021/10/16 02:54:22;;;;;;;20.00;9.90;;;;;;;8.97;91.89;96556.69;5002372;28;20218;-72
2021/10/16 02:56:49;;;;;;;17.70;9.40;;;;;;;8.87;92.17;96561.28;5002083;28;20210;-72
2021/10/16 02:59:15;;;;;;;22.07;9.60;;;;;;;8.97;92.48;96553.25;5003468;28;20210;-72
2021/10/16 03:01:42;;;;;;;17.43;9.53;;;;;;;8.80;92.31;96562.88;5002426;28;20611;-71
2021/10/16 03:04:09;;;;;;;22.27;9.70;;;;;;;9.00;93.33;96559.03;5002918;28;20237;-72
2021/10/16 03:06:36;;;;;;;20.57;9.50;;;;;;;8.71;92.90;96563.84;5002119;28;20210;-72
2021/10/16 03:09:03;;;;;;;17.17;8.97;;;;;;;8.66;92.51;96570.53;5003051;28;20210;-71
2021/10/16 03:11:30;;;;;;;18.90;9.10;;;;;;;8.78;92.02;96564.88;5001955;28;20222;-72
2021/10/16 03:13:58;;;;;;;17.37;9.57;;;;;;;8.67;94.43;96559.88;5002917;28;20207;-71
2021/10/16 03:16:24;;;;;;;21.83;10.13;;;;;;;8.53;95.05;96568.34;4998617;28;20237;-72
2021/10/16 03:18:52;;;;;;;20.67;10.70;;;;;;;8.66;94.68;96574.00;5002564;28;20214;-71
2021/10/16 03:21:20;;;;;;;22.97;9.80;;;;;;;8.97;94.33;96563.78;5002851;28;20206;-71
2021/10/16 03:23:47;;;;;;;17.30;9.53;;;;;;;8.78;94.15;96567.50;5002866;28;20233;-71
2021/10/16 03:26:14;;;;;;;25.07;9.83;;;;;;;8.88;93.68;96568.16;5001559;28;20596;-72
2021/10/16 03:28:41;;;;;;;25.27;10.77;;;;;;;9.00;93.88;96566.06;5002283;28;20210;-71
2021/10/16 03:31:07;;;;;;;21.77;10.97;;;;;;;8.93;94.27;96571.13;5002678;28;20210;-71
2021/10/16 03:33:34;;;;;;;18.63;9.80;;;;;;;9.02;93.17;96570.19;5003056;28;20206;-71
2021/10/16 03:36:00;;;;;;;20.20;10.20;;;;;;;9.09;93.25;96572.03;4997868;28;20233;-71
2021/10/16 03:38:28;;;;;;;21.63;10.83;;;;;;;9.36;94.34;96568.31;4999157;28;20211;-72
2021/10/16 03:40:54;;;;;;;20.70;9.43;;;;;;;9.17;93.93;96568.59;4999372;28;20202;-71
2021/10/16 03:43:21;;;;;;;20.47;9.70;;;;;;;9.14;93.50;96568.94;4998621;28;20591;-71
2021/10/16 03:45:47;;;;;;;20.43;9.83;;;;;;;9.11;93.84;96561.34;4998115;28;20253;-72
2021/10/16 03:48:14;;;;;;;17.57;10.03;;;;;;;9.14;93.91;96566.31;4999073;28;20218;-71
2021/10/16 03:50:40;;;;;;;20.57;10.30;;;;;;;9.10;93.54;96564.97;4999044;28;20206;-71
2021/10/16 03:53:07;;;;;;;19.73;10.93;;;;;;;9.22;93.59;96567.13;4998670;28;20219;-72
2021/10/16 03:55:35;;;;;;;22.47;10.87;;;;;;;9.34;94.19;96568.50;4997703;28;20580;-72
2021/10/16 03:58:01;;;;;;;19.73;10.53;;;;;;;9.11;94.18;96564.81;4998624;28;20199;-72
2021/10/16 04:00:28;;;;;;;20.60;10.93;;;;;;;9.19;93.75;96571.91;4998537;28;20207;-71
2021/10/16 04:02:57;;;;;;;23.50;11.60;;;;;;;9.20;93.74;96570.91;4998779;28;20527;-71
2021/10/16 04:05:24;;;;;;;22.37;10.67;;;;;;;9.22;93.96;96563.69;4998139;28;20334;-71
2021/10/16 04:07:51;;;;;;;20.20;10.57;;;;;;;9.23;93.75;96570.59;4998978;28;21171;-71
2021/10/16 04:10:17;;;;;;;24.37;12.00;;;;;;;9.03;94.99;96556.06;4998050;28;20210;-71
2021/10/16 04:12:45;;;;;;;18.97;10.10;;;;;;;9.37;94.54;96562.09;4998499;28;20206;-71
2021/10/16 04:15:11;;;;;;;20.67;10.57;;;;;;;9.02;95.24;96562.31;4996104;28;20608;-71
2021/10/16 04:17:38;;;;;;;20.73;11.20;;;;;;;9.08;94.95;96564.31;4997065;28;20211;-72
2021/10/16 04:20:05;;;;;;;19.23;10.20;;;;;;;9.42;93.86;96557.97;4999030;28;20214;-72
2021/10/16 04:22:32;;;;;;;19.97;10.67;;;;;;;9.14;94.49;96561.03;4998422;28;20253;-72
2021/10/16 04:24:59;;;;;;;23.97;11.63;;;;;;;9.25;94.12;96560.72;4997591;28;20253;-72
2021/10/16 04:27:25;;;;;;;29.40;11.40;;;;;;;9.19;94.98;96554.31;4996601;28;20218;-72
2021/10/16 04:29:53;;;;;;;24.17;12.10;;;;;;;9.47;95.08;96554.84;4999506;28;20213;-71
2021/10/16 04:32:19;;;;;;;26.00;11.83;;;;;;;9.26;94.70;96557.13;4997605;28;20578;-72
2021/10/16 04:34:46;;;;;;;24.23;11.33;;;;;;;9.28;95.08;96555.16;4998162;28;20325;-72
2021/10/16 04:37:14;;;;;;;22.97;11.87;;;;;;;9.29;95.19;96557.63;4996988;28;20210;-72
2021/10/16 04:39:41;;;;;;;21.00;11.33;;;;;;;9.12;95.87;96560.38;4997956;28;20214;-70
2021/10/16 04:42:11;;;;;;;24.97;11.87;;;;;;;9.21;95.68;96560.22;4997857;28;20211;-71
2021/10/16 04:44:38;;;;;;;26.77;11.40;;;;;;;9.40;95.17;96564.38;4997955;28;20333;-71
2021/10/16 04:47:06;;;;;;;19.77;10.13;;;;;;;9.32;95.93;96572.25;4996151;28;20206;-72
2021/10/16 04:49:34;;;;;;;23.53;10.83;;;;;;;9.34;95.04;96576.38;4997222;28;20210;-71
2021/10/16 04:52:02;;;;;;;23.07;10.73;;;;;;;9.23;95.19;96563.53;4997897;28;20421;-71
2021/10/16 04:54:28;;;;;;;21.60;11.20;;;;;;;9.20;95.31;96560.38;4997243;28;20223;-71
2021/10/16 04:56:55;;;;;;;22.17;11.17;;;;;;;9.26;95.41;96559.75;4996951;28;20675;-72
2021/10/16 04:59:21;;;;;;;25.40;11.33;;;;;;;9.30;94.53;96564.50;4997918;28;20470;-72
2021/10/16 05:01:48;;;;;;;23.77;10.80;;;;;;;9.37;94.81;96570.78;4997621;28;20207;-71
2021/10/16 05:04:16;;;;;;;25.03;11.33;;;;;;;9.59;94.25;96567.53;4997270;28;20222;-71
2021/10/16 05:06:42;;;;;;;20.13;11.10;;;;;;;9.33;94.80;96568.63;4996487;28;20203;-72
2021/10/16 05:09:08;;;;;;;21.40;10.63;;;;;;;9.37;94.77;96564.72;4996851;28;20222;-72
2021/10/16 05:11:35;;;;;;;27.97;12.27;;;;;;;9.32;95.15;96567.00;4997276;28;20209;-71
2021/10/16 05:14:01;;;;;;;19.20;10.30;;;;;;;9.48;94.29;96559.13;4997020;28;20671;-72
2021/10/16 05:16:29;;;;;;;21.97;11.03;;;;;;;9.42;94.90;96563.22;4993936;28;20907;-71
2021/10/16 05:18:56;;;;;;;20.80;10.50;;;;;;;9.37;94.68;96562.91;4997625;28;20206;-71
2021/10/16 05:21:23;;;;;;;19.07;10.57;;;;;;;9.56;95.48;96559.13;4997467;28;20203;-72
2021/10/16 05:23:50;;;;;;;21.23;10.63;;;;;;;9.44;94.89;96565.69;4997126;28;20730;-72
2021/10/16 05:26:16;;;;;;;24.00;11.63;;;;;;;9.41;95.14;96560.78;4996522;28;20226;-71
2021/10/16 05:28:43;;;;;;;22.43;11.00;;;;;;;9.48;95.20;96564.38;4997053;28;20202;-72
2021/10/16 05:31:09;;;;;;;20.87;10.73;;;;;;;9.48;95.32;96559.13;4996405;28;20686;-72
2021/10/16 05:33:36;;;;;;;27.30;11.30;;;;;;;9.50;95.28;96572.94;4997729;28;20205;-72
2021/10/16 05:36:02;;;;;;;23.07;10.93;;;;;;;9.38;96.00;96566.34;4995627;28;20226;-72
2021/10/16 05:38:30;;;;;;;19.07;10.47;;;;;;;9.78;95.41;96570.66;4996437;28;20215;-71
2021/10/16 05:40:57;;;;;;;20.90;11.13;;;;;;;9.68;95.11;96566.53;5000848;28;20206;-71
2021/10/16 05:43:23;;;;;;;22.30;10.87;;;;;;;9.63;95.56;96571.47;5000706;28;20238;-71
2021/10/16 05:45:50;;;;;;;23.33;12.03;;;;;;;9.64;95.18;96574.94;5000485;28;20233;-71
2021/10/16 05:48:16;;;;;;;20.77;10.90;;;;;;;9.70;94.84;96575.91;5002730;28;20211;-71
2021/10/16 05:50:43;;;;;;;24.97;11.77;;;;;;;9.72;95.23;96571.34;5002487;28;20237;-71
2021/10/16 05:53:09;;;;;;;26.50;12.77;;;;;;;9.68;95.00;96580.50;5002005;28;20203;-69
2021/10/16 05:55:37;;;;;;;26.53;12.83;;;;;;;9.85;95.87;96582.19;5000620;28;20313;-70
2021/10/16 05:58:03;;;;;;;26.23;12.83;;;;;;;9.72;95.30;96581.84;5002168;28;20329;-71
2021/10/16 06:00:30;;;;;;;21.57;12.10;;;;;;;9.69;95.86;96582.16;5001343;28;20199;-71
2021/10/16 06:02:57;;;;;;;26.13;12.57;;;;;;;9.65;95.83;96587.94;5000835;28;20210;-71
2021/10/16 06:05:24;;;;;;;27.40;12.63;;;;;;;9.59;96.55;96585.13;5001727;28;20226;-71
2021/10/16 06:07:51;;;;;;;26.03;12.63;;;;;;;9.75;95.76;96581.53;5000983;28;20209;-71
2021/10/16 06:10:17;;;;;;;26.77;12.47;;;;;;;9.78;96.09;96589.06;5002110;28;20206;-71
2021/10/16 06:12:45;;;;;;;29.57;13.63;;;;;;;10.12;96.06;96594.22;5001160;28;20206;-70
2021/10/16 06:15:11;;;;;;;27.33;13.40;;;;;;;9.93;95.65;96597.16;5000078;28;21370;-69
2021/10/16 06:17:38;;;;;;;29.07;13.93;;;;;;;9.92;95.64;96593.69;4998788;28;20285;-70
2021/10/16 06:20:06;;;;;;;25.13;12.80;;;;;;;10.04;96.09;96602.97;5000040;28;20214;-72
2021/10/16 06:22:32;;;;;;;27.67;13.33;;;;;;;9.98;95.88;96600.13;4999750;28;20203;-71
2021/10/16 06:24:59;;;;;;;28.80;13.23;;;;;;;10.04;95.50;96602.97;5000051;28;20238;-72
2021/10/16 06:27:26;;;;;;;28.17;13.60;;;;;;;9.97;95.61;96606.41;4999348;28;20206;-72
2021/10/16 06:29:54;;;;;;;32.10;13.93;;;;;;;10.27;95.69;96606.53;5001630;28;20229;-72
2021/10/16 06:32:20;;;;;;;31.83;13.60;;;;;;;10.09;95.40;96607.72;5000135;28;20206;-72
2021/10/16 06:34:47;;;;;;;26.63;13.77;;;;;;;10.16;94.95;96612.16;5000699;28;20219;-71
2021/10/16 06:37:13;;;;;;;27.13;13.70;;;;;;;10.30;94.75;96619.41;4999521;28;20218;-72
2021/10/16 06:39:40;;;;;;;30.80;14.20;;;;;;;10.39;94.08;96621.03;5001445;28;20202;-71
2021/10/16 06:42:06;;;;;;;25.97;13.33;;;;;;;10.43;94.03;96619.72;4999720;28;20203;-71
2021/10/16 06:44:33;;;;;;;33.47;13.77;;;;;;;10.51;94.55;96617.91;5001620;28;20229;-71
2021/10/16 06:47:01;;;;;;;27.70;13.87;;;;;;;10.77;94.34;96620.28;5001202;28;20211;-72
2021/10/16 06:49:27;;;;;;;26.93;13.47;;;;;;;10.51;94.46;96617.91;5001272;28;20210;-71
2021/10/16 06:51:54;;;;;;;25.30;13.37;;;;;;;10.51;94.20;96623.16;5001800;28;20214;-72
2021/10/16 06:54:20;;;;;;;30.23;13.60;;;;;;;10.60;94.06;96621.31;5001491;28;20213;-71
2021/10/16 06:56:47;;;;;;;27.90;14.00;;;;;;;10.68;93.63;96629.19;5001115;28;20203;-72
2021/10/16 06:59:13;;;;;;;26.20;13.17;;;;;;;10.79;93.18;96626.22;5000640;28;20207;-70
2021/10/16 07:01:40;;;;;;;29.00;13.37;;;;;;;10.85;93.13;96625.56;5000090;28;20203;-72
2021/10/16 07:04:07;;;;;;;29.60;15.33;;;;;;;11.12;93.68;96620.66;5000136;28;20227;-72
2021/10/16 07:06:34;;;;;;;29.70;14.97;;;;;;;11.08;93.62;96624.66;4999463;28;20207;-72
2021/10/16 07:09:00;;;;;;;25.93;13.73;;;;;;;11.12;93.05;96632.03;4999329;28;20202;-71
2021/10/16 07:11:27;;;;;;;24.07;13.07;;;;;;;11.16;93.35;96627.25;5003532;28;20206;-70
2021/10/16 07:13:54;;;;;;;28.37;14.23;;;;;;;11.22;92.90;96630.03;5004621;28;20210;-70
2021/10/16 07:16:20;;;;;;;24.20;12.77;;;;;;;11.32;92.63;96629.84;5002751;28;20234;-72
2021/10/16 07:18:47;;;;;;;23.47;12.53;;;;;;;11.40;92.01;96640.34;5005342;28;20206;-71
2021/10/16 07:21:15;;;;;;;27.67;13.57;;;;;;;11.71;91.79;96640.19;5004704;28;20213;-70
2021/10/16 07:23:41;;;;;;;23.40;13.00;;;;;;;11.49;91.62;96637.47;5004961;28;20233;-71
2021/10/16 07:26:08;;;;;;;26.37;13.87;;;;;;;11.55;91.49;96647.38;5004705;28;20233;-72
2021/10/16 07:28:34;;;;;;;28.93;13.63;;;;;;;11.69;90.98;96630.81;5004037;28;20218;-72
2021/10/16 07:31:01;;;;;;;27.50;13.10;;;;;;;11.68;90.50;96648.47;5005084;28;20203;-72
2021/10/16 07:33:27;;;;;;;28.73;13.70;;;;;;;11.80;90.04;96643.59;5005101;28;20213;-72
2021/10/16 07:35:53;;;;;;;30.57;14.47;;;;;;;11.81;90.37;96642.59;5004406;28;20726;-71
2021/10/16 07:38:21;;;;;;;31.37;14.23;;;;;;;12.09;90.71;96635.81;5004500;28;21064;-71
2021/10/16 07:40:48;;;;;;;30.47;14.37;;;;;;;11.69;92.05;96644.81;5005443;28;20210;-72
2021/10/16 07:43:14;;;;;;;34.53;15.00;;;;;;;11.86;92.22;96653.47;5004876;28;20207;-70
2021/10/16 07:45:41;;;;;;;33.20;14.57;;;;;;;11.94;92.43;96640.22;5004620;28;20231;-72
2021/10/16 07:48:07;;;;;;;36.87;16.73;;;;;;;11.98;92.11;96654.72;5004581;28;20206;-71
2021/10/16 07:50:35;;;;;;;41.73;17.63;;;;;;;11.67;93.22;96652.09;5004062;28;20203;-71
2021/10/16 07:53:03;;;;;;;40.47;17.90;;;;;;;11.79;93.20;96657.81;5003323;28;20207;-72
2021/10/16 07:55:31;;;;;;;45.70;17.57;;;;;;;12.08;93.22;96650.00;5003464;28;20734;-72
2021/10/16 07:57:58;;;;;;;41.97;18.83;;;;;;;12.10;92.28;96654.13;5003806;28;20211;-72
2021/10/16 08:00:25;;;;;;;47.47;19.77;;;;;;;11.94;92.27;96658.69;5003667;28;20202;-71
2021/10/16 08:02:52;;;;;;;45.53;19.57;;;;;;;12.00;92.01;96653.53;5002206;28;20203;-72
2021/10/16 08:05:19;;;;;;;48.83;20.10;;;;;;;12.12;92.06;96649.50;5002826;28;20234;-72
2021/10/16 08:07:45;;;;;;;43.47;17.87;;;;;;;12.00;92.96;96652.72;5002702;28;20210;-72
2021/10/16 08:10:13;;;;;;;41.20;19.23;;;;;;;12.38;92.76;96652.59;5002468;28;20769;-70
2021/10/16 08:12:41;;;;;;;45.33;19.10;;;;;;;12.49;92.33;96654.81;5003186;28;20198;-72
2021/10/16 08:15:09;;;;;;;43.20;19.60;;;;;;;12.17;93.21;96647.97;5002894;28;20234;-70
2021/10/16 08:17:36;;;;;;;40.47;18.33;;;;;;;12.35;92.19;96653.75;5000623;28;20678;-72
2021/10/16 08:20:02;;;;;;;43.17;19.50;;;;;;;12.38;92.36;96657.88;5002293;28;20210;-71
2021/10/16 08:22:29;;;;;;;49.20;19.87;;;;;;;12.47;92.46;96657.63;5002065;28;20215;-72
2021/10/16 08:24:55;;;;;;;50.47;21.13;;;;;;;12.27;92.15;96658.28;5001461;28;20329;-71
2021/10/16 08:27:22;;;;;;;48.90;20.87;;;;;;;12.27;95.00;96656.47;4999990;28;20210;-70
2021/10/16 08:29:50;;;;;;;45.10;19.80;;;;;;;12.59;94.20;96660.66;5000833;28;20296;-72
2021/10/16 08:32:17;;;;;;;43.20;19.50;;;;;;;12.81;90.01;96660.63;5001825;28;20452;-72
2021/10/16 08:34:43;;;;;;;44.67;18.60;;;;;;;12.91;90.50;96661.22;5001426;28;20234;-72
2021/10/16 08:37:10;;;;;;;43.03;18.23;;;;;;;12.96;90.38;96670.25;5001282;28;20206;-70
2021/10/16 08:39:36;;;;;;;43.90;20.47;;;;;;;12.83;90.44;96664.72;5001534;28;20205;-71
2021/10/16 08:42:03;;;;;;;46.80;20.20;;;;;;;12.92;90.58;96662.88;5000877;28;20202;-72
2021/10/16 08:44:29;;;;;;;50.47;21.03;;;;;;;12.79;92.02;96667.91;5002063;28;20605;-70
2021/10/16 08:46:58;;;;;;;52.63;22.00;;;;;;;13.14;90.70;96668.06;5001546;28;20214;-70
2021/10/16 08:49:30;;;;;;;51.53;21.20;;;;;;;12.87;91.66;96673.16;5002015;28;20294;-72
2021/10/16 08:51:57;;;;;;;60.80;22.83;;;;;;;12.62;92.00;96676.19;5001313;28;20206;-72
2021/10/16 08:54:23;;;;;;;57.73;23.03;;;;;;;12.48;92.28;96677.78;5002078;28;20225;-72
2021/10/16 08:56:50;;;;;;;60.90;23.30;;;;;;;12.52;92.94;96671.13;5000832;28;20207;-71
2021/10/16 08:59:16;;;;;;;66.87;25.53;;;;;;;12.45;92.90;96670.22;5001169;28;20209;-70
2021/10/16 09:01:58;;;;;;;62.33;24.47;;;;;;;12.98;90.86;96670.06;5002793;28;20210;-71
2021/10/16 09:04:25;;;;;;;63.40;24.23;;;;;;;12.16;93.63;96673.75;5001832;28;20233;-71
2021/10/16 09:06:52;;;;;;;64.20;24.40;;;;;;;12.46;92.73;96669.22;5000990;28;20229;-72
2021/10/16 09:09:24;;;;;;;64.50;23.13;;;;;;;12.80;92.36;96670.38;5001340;28;20218;-70
2021/10/16 09:11:54;;;;;;;64.57;22.77;;;;;;;12.74;91.89;96672.09;5001567;28;20218;-71
2021/10/16 09:14:22;;;;;;;60.77;23.53;;;;;;;12.36;94.87;96667.81;5000956;28;20207;-72
2021/10/16 09:16:50;;;;;;;83.50;35.53;;;;;;;12.71;92.11;96675.09;4998536;28;20226;-72
2021/10/16 09:19:19;;;;;;;64.53;25.07;;;;;;;12.69;92.85;96683.22;5001045;28;20203;-72
2021/10/16 09:21:49;;;;;;;73.07;25.27;;;;;;;12.83;92.92;96675.31;5001246;28;20213;-71
2021/10/16 09:26:44;;;;;;;61.90;23.30;;;;;;;12.91;92.61;96674.44;5109045;27;21043;-73
2021/10/16 09:29:13;;;;;;;65.63;22.97;;;;;;;13.06;92.22;96677.91;5107428;28;20198;-73
2021/10/16 09:31:43;;;;;;;60.60;22.67;;;;;;;13.08;93.01;96676.72;5106206;28;20213;-71
2021/10/16 09:34:11;;;;;;;58.43;21.43;;;;;;;13.05;92.48;96686.88;5109319;28;20252;-72
2021/10/16 09:36:39;;;;;;;60.70;22.00;;;;;;;13.17;91.47;96682.75;5108541;27;20676;-70
2021/10/16 09:39:07;;;;;;;55.07;20.47;;;;;;;13.19;90.94;96683.41;5109990;28;20199;-71
2021/10/16 09:41:36;;;;;;;55.93;21.43;;;;;;;13.12;91.29;96679.84;5108189;28;20207;-70
2021/10/16 09:44:06;;;;;;;55.93;20.60;;;;;;;13.13;91.09;96686.78;5110992;27;20238;-69
2021/10/16 09:46:32;;;;;;;58.17;22.60;;;;;;;12.73;92.54;96687.16;5108415;28;20571;-70
2021/10/16 09:49:07;;;;;;;61.70;23.17;;;;;;;13.00;93.16;96691.88;5106535;27;20230;-70
2021/10/16 09:51:50;;;;;;;61.90;22.57;;;;;;;13.17;90.96;96690.69;5110596;28;20242;-73
2021/10/16 09:54:16;;;;;;;65.93;23.40;;;;;;;12.81;92.43;96692.34;5107043;27;20234;-73
2021/10/16 09:56:44;;;;;;;70.40;23.80;;;;;;;12.80;92.59;96690.72;5109152;27;20203;-73
2021/10/16 09:59:16;;;;;;;68.07;25.60;;;;;;;13.23;91.37;96689.97;5110370;27;20198;-73
2021/10/16 10:01:44;;;;;;;68.87;24.43;;;;;;;12.96;91.46;96685.31;5109354;28;20235;-73
2021/10/16 10:04:11;;;;;;;66.87;23.87;;;;;;;12.87;93.23;96687.19;5107319;28;20199;-72
2021/10/16 10:06:39;;;;;;;69.37;23.43;;;;;;;13.15;91.02;96684.75;5106648;28;20608;-73
2021/10/16 10:09:06;;;;;;;64.97;24.20;;;;;;;13.17;93.29;96688.06;5108340;27;20194;-73
2021/10/16 10:11:34;;;;;;;58.73;22.33;;;;;;;13.14;92.02;96683.94;5110287;28;20204;-73
2021/10/16 10:14:02;;;;;;;64.63;25.03;;;;;;;13.05;91.72;96682.38;5106447;27;20589;-73
2021/10/16 10:16:31;;;;;;;53.90;22.27;;;;;;;13.13;91.75;96679.66;5106500;28;20211;-71
2021/10/16 10:19:01;;;;;;;53.40;20.33;;;;;;;13.11;94.75;96683.47;5105838;28;20967;-71
2021/10/16 10:21:33;;;;;;;59.03;23.97;;;;;;;13.69;91.08;96679.78;5108572;28;20206;-73
2021/10/16 10:24:01;;;;;;;54.10;22.57;;;;;;;13.47;89.49;96675.44;5106973;28;20207;-73
2021/10/16 10:26:30;;;;;;;52.00;21.27;;;;;;;13.65;89.73;96681.19;5106745;27;20230;-71
2021/10/16 10:28:59;;;;;;;50.57;19.90;;;;;;;13.95;89.85;96679.28;5103110;28;20206;-70
2021/10/16 10:32:04;;;;;;;47.37;19.80;;;;;;;14.26;87.60;96676.19;5105834;28;20206;-68
2021/10/16 10:34:34;;;;;;;50.87;20.03;;;;;;;13.94;87.69;96682.94;5106103;28;20590;-69
2021/10/16 10:37:05;;;;;;;44.75;19.20;;;;;;;13.92;87.06;96680.47;5100544;28;20284;-69
2021/10/16 10:39:46;;;;;;;48.50;19.00;;;;;;;13.83;88.54;96676.31;5093173;28;20207;-69
2021/10/16 10:42:49;;;;;;;47.93;19.90;;;;;;;13.94;86.78;96678.47;5095586;28;20215;-71
2021/10/16 10:45:38;;;;;;;57.70;21.27;;;;;;;13.70;89.98;96686.75;5092572;28;20229;-69
2021/10/16 10:48:14;;;;;;;54.00;21.00;;;;;;;13.72;88.36;96683.91;5087578;28;20222;-68
2021/10/16 10:50:59;;;;;;;55.40;21.33;;;;;;;13.69;89.55;96679.00;5092199;28;20258;-69
2021/10/16 10:53:31;;;;;;;57.10;25.73;;;;;;;13.24;90.03;96676.56;5093414;28;20208;-70
2021/10/16 10:55:59;;;;;;;56.20;20.97;;;;;;;13.31;90.41;96679.31;5091866;28;20767;-69
2021/10/16 10:59:00;;;;;;;54.87;21.00;;;;;;;13.90;87.88;96681.69;5092668;28;20210;-71
2021/10/16 11:02:00;;;;;;;57.40;23.53;;;;;;;13.76;88.08;96674.56;5093554;28;20199;-73
2021/10/16 11:04:51;;;;;;;53.53;19.83;;;;;;;13.75;88.85;96668.47;5096082;28;20228;-73
2021/10/16 11:07:38;;;;;;;52.97;20.87;;;;;;;13.58;89.34;96672.34;5090318;28;20309;-72
2021/10/16 11:10:06;;;;;;;52.60;19.87;;;;;;;13.65;89.32;96667.94;5091582;28;20200;-69
2021/10/16 11:12:34;;;;;;;53.43;20.60;;;;;;;13.60;89.05;96666.84;5091681;28;20192;-69
2021/10/16 11:15:02;;;;;;;50.50;19.77;;;;;;;13.53;89.05;96664.13;5092120;28;20219;-71
2021/10/16 11:17:40;;;;;;;48.63;19.03;;;;;;;13.92;87.68;96659.28;5090690;28;20200;-71
2021/10/16 11:20:12;;;;;;;56.83;21.30;;;;;;;13.76;89.61;96650.75;5093226;28;20287;-71
2021/10/16 11:22:53;;;;;;;50.20;19.13;;;;;;;14.17;85.74;96639.41;5093570;28;20246;-71
2021/10/16 11:25:22;;;;;;;51.27;20.57;;;;;;;13.78;86.82;96646.09;5092952;28;20223;-70
2021/10/16 11:28:07;;;;;;;49.10;19.80;;;;;;;14.26;86.47;96646.25;5091907;28;20203;-73
2021/10/16 11:30:35;;;;;;;52.97;20.07;;;;;;;13.96;89.98;96641.19;5089998;28;20210;-72